sensor_id;sensor_type;location;lat;lon;timestamp;P1;durP1;ratioP1;P2;durP2;ratioP2
56005;SDS011;41888;44.696;10.522;2023-06-14T00:01:01;5.20;;;2.60;;
56005;SDS011;41888;44.696;10.522;2023-06-14T00:03:31;4.95;;;2.38;;
56005;SDS011;41888;44.696;10.522;2023-06-14T00:05:57;3.95;;;2.75;;
56005;SDS011;41888;44.696;10.522;2023-06-14T00:08:24;6.82;;;2.88;;
56005;SDS011;41888;44.696;10.522;2023-06-14T00:10:50;12.02;;;3.40;;
56005;SDS011;41888;44.696;10.522;2023-06-14T00:13:17;5.55;;;2.58;;
56005;SDS011;41888;44.696;10.522;2023-06-14T00:15:43;4.90;;;2.78;;
56005;SDS011;41888;44.696;10.522;2023-06-14T00:18:11;8.23;;;3.05;;
56005;SDS011;41888;44.696;10.522;2023-06-14T00:20:37;4.20;;;2.67;;
56005;SDS011;41888;44.696;10.522;2023-06-14T00:23:04;5.38;;;2.58;;
56005;SDS011;41888;44.696;10.522;2023-06-14T00:25:30;3.85;;;2.33;;
56005;SDS011;41888;44.696;10.522;2023-06-14T00:27:57;4.55;;;2.33;;
56005;SDS011;41888;44.696;10.522;2023-06-14T00:30:23;4.75;;;2.35;;
56005;SDS011;41888;44.696;10.522;2023-06-14T00:32:50;5.38;;;2.58;;
56005;SDS011;41888;44.696;10.522;2023-06-14T00:35:16;7.45;;;2.47;;
56005;SDS011;41888;44.696;10.522;2023-06-14T00:37:42;5.70;;;2.63;;
56005;SDS011;41888;44.696;10.522;2023-06-14T00:40:09;5.35;;;2.72;;
56005;SDS011;41888;44.696;10.522;2023-06-14T00:42:35;4.47;;;2.65;;
56005;SDS011;41888;44.696;10.522;2023-06-14T00:45:01;10.98;;;2.80;;
56005;SDS011;41888;44.696;10.522;2023-06-14T00:47:27;4.10;;;2.45;;
56005;SDS011;41888;44.696;10.522;2023-06-14T00:49:54;4.80;;;2.80;;
56005;SDS011;41888;44.696;10.522;2023-06-14T00:52:21;4.93;;;2.70;;
56005;SDS011;41888;44.696;10.522;2023-06-14T00:54:49;4.13;;;2.30;;
56005;SDS011;41888;44.696;10.522;2023-06-14T00:57:16;5.47;;;2.97;;
56005;SDS011;41888;44.696;10.522;2023-06-14T00:59:43;6.03;;;2.53;;
56005;SDS011;41888;44.696;10.522;2023-06-14T01:02:13;5.40;;;3.45;;
56005;SDS011;41888;44.696;10.522;2023-06-14T01:04:40;5.13;;;2.63;;
56005;SDS011;41888;44.696;10.522;2023-06-14T01:07:33;4.43;;;2.80;;
56005;SDS011;41888;44.696;10.522;2023-06-14T01:10:12;4.63;;;2.70;;
56005;SDS011;41888;44.696;10.522;2023-06-14T01:15:36;4.10;;;2.40;;
56005;SDS011;41888;44.696;10.522;2023-06-14T01:18:03;5.55;;;2.78;;
56005;SDS011;41888;44.696;10.522;2023-06-14T01:20:31;5.90;;;3.38;;
56005;SDS011;41888;44.696;10.522;2023-06-14T01:23:01;6.35;;;2.80;;
56005;SDS011;41888;44.696;10.522;2023-06-14T01:25:28;5.00;;;2.30;;
56005;SDS011;41888;44.696;10.522;2023-06-14T01:27:59;4.85;;;2.85;;
56005;SDS011;41888;44.696;10.522;2023-06-14T01:30:35;6.65;;;2.63;;
56005;SDS011;41888;44.696;10.522;2023-06-14T01:33:03;6.35;;;2.75;;
56005;SDS011;41888;44.696;10.522;2023-06-14T01:35:30;9.50;;;3.08;;
56005;SDS011;41888;44.696;10.522;2023-06-14T01:37:57;4.57;;;2.38;;
56005;SDS011;41888;44.696;10.522;2023-06-14T01:40:25;5.10;;;2.58;;
56005;SDS011;41888;44.696;10.522;2023-06-14T01:42:52;7.25;;;2.47;;
56005;SDS011;41888;44.696;10.522;2023-06-14T01:45:19;7.47;;;2.90;;
56005;SDS011;41888;44.696;10.522;2023-06-14T01:47:46;10.35;;;2.90;;
56005;SDS011;41888;44.696;10.522;2023-06-14T01:50:13;3.97;;;2.28;;
56005;SDS011;41888;44.696;10.522;2023-06-14T01:52:39;5.28;;;2.13;;
56005;SDS011;41888;44.696;10.522;2023-06-14T01:55:06;4.18;;;2.85;;
56005;SDS011;41888;44.696;10.522;2023-06-14T01:57:33;2.72;;;1.70;;
56005;SDS011;41888;44.696;10.522;2023-06-14T01:59:59;4.15;;;2.15;;
56005;SDS011;41888;44.696;10.522;2023-06-14T02:02:25;3.85;;;2.10;;
56005;SDS011;41888;44.696;10.522;2023-06-14T02:04:52;2.95;;;1.80;;
56005;SDS011;41888;44.696;10.522;2023-06-14T02:07:22;6.28;;;2.72;;
56005;SDS011;41888;44.696;10.522;2023-06-14T02:09:49;6.47;;;2.22;;
56005;SDS011;41888;44.696;10.522;2023-06-14T02:12:15;5.90;;;3.10;;
56005;SDS011;41888;44.696;10.522;2023-06-14T02:14:41;5.50;;;2.88;;
56005;SDS011;41888;44.696;10.522;2023-06-14T02:17:09;12.15;;;2.53;;
56005;SDS011;41888;44.696;10.522;2023-06-14T02:19:35;4.00;;;2.20;;
56005;SDS011;41888;44.696;10.522;2023-06-14T02:22:01;4.63;;;2.17;;
56005;SDS011;41888;44.696;10.522;2023-06-14T02:24:28;4.10;;;1.98;;
56005;SDS011;41888;44.696;10.522;2023-06-14T02:26:54;4.63;;;2.65;;
56005;SDS011;41888;44.696;10.522;2023-06-14T02:29:21;5.15;;;2.55;;
56005;SDS011;41888;44.696;10.522;2023-06-14T02:31:47;5.65;;;1.95;;
56005;SDS011;41888;44.696;10.522;2023-06-14T02:34:13;3.65;;;2.20;;
56005;SDS011;41888;44.696;10.522;2023-06-14T02:36:41;3.85;;;2.50;;
56005;SDS011;41888;44.696;10.522;2023-06-14T02:39:10;4.80;;;2.65;;
56005;SDS011;41888;44.696;10.522;2023-06-14T02:41:37;3.60;;;1.95;;
56005;SDS011;41888;44.696;10.522;2023-06-14T02:44:03;6.43;;;1.98;;
56005;SDS011;41888;44.696;10.522;2023-06-14T02:46:30;4.50;;;2.45;;
56005;SDS011;41888;44.696;10.522;2023-06-14T02:48:56;6.18;;;2.08;;
56005;SDS011;41888;44.696;10.522;2023-06-14T02:51:22;5.47;;;2.15;;
56005;SDS011;41888;44.696;10.522;2023-06-14T02:53:49;7.32;;;2.05;;
56005;SDS011;41888;44.696;10.522;2023-06-14T02:56:15;8.60;;;2.65;;
56005;SDS011;41888;44.696;10.522;2023-06-14T02:58:42;4.30;;;1.85;;
56005;SDS011;41888;44.696;10.522;2023-06-14T03:01:08;5.50;;;1.88;;
56005;SDS011;41888;44.696;10.522;2023-06-14T03:03:37;9.98;;;2.38;;
56005;SDS011;41888;44.696;10.522;2023-06-14T03:06:04;5.50;;;1.88;;
56005;SDS011;41888;44.696;10.522;2023-06-14T03:08:30;4.75;;;2.30;;
56005;SDS011;41888;44.696;10.522;2023-06-14T03:11:04;3.88;;;2.05;;
56005;SDS011;41888;44.696;10.522;2023-06-14T03:13:30;3.45;;;2.10;;
56005;SDS011;41888;44.696;10.522;2023-06-14T03:15:59;5.03;;;2.72;;
56005;SDS011;41888;44.696;10.522;2023-06-14T03:18:31;4.10;;;1.92;;
56005;SDS011;41888;44.696;10.522;2023-06-14T03:21:00;4.10;;;2.30;;
56005;SDS011;41888;44.696;10.522;2023-06-14T03:23:27;5.13;;;2.38;;
56005;SDS011;41888;44.696;10.522;2023-06-14T03:25:54;6.78;;;2.45;;
56005;SDS011;41888;44.696;10.522;2023-06-14T03:28:20;4.78;;;2.55;;
56005;SDS011;41888;44.696;10.522;2023-06-14T03:30:47;5.45;;;2.55;;
56005;SDS011;41888;44.696;10.522;2023-06-14T03:33:13;4.57;;;2.38;;
56005;SDS011;41888;44.696;10.522;2023-06-14T03:35:40;4.93;;;2.25;;
56005;SDS011;41888;44.696;10.522;2023-06-14T03:38:06;4.65;;;2.50;;
56005;SDS011;41888;44.696;10.522;2023-06-14T03:40:33;5.88;;;2.13;;
56005;SDS011;41888;44.696;10.522;2023-06-14T03:42:59;3.53;;;2.40;;
56005;SDS011;41888;44.696;10.522;2023-06-14T03:45:25;4.80;;;2.30;;
56005;SDS011;41888;44.696;10.522;2023-06-14T03:47:51;6.70;;;2.10;;
56005;SDS011;41888;44.696;10.522;2023-06-14T03:50:17;5.75;;;2.28;;
56005;SDS011;41888;44.696;10.522;2023-06-14T03:52:44;5.32;;;3.03;;
56005;SDS011;41888;44.696;10.522;2023-06-14T03:55:13;3.70;;;1.80;;
56005;SDS011;41888;44.696;10.522;2023-06-14T03:57:41;4.45;;;2.38;;
56005;SDS011;41888;44.696;10.522;2023-06-14T04:00:08;4.03;;;2.00;;
56005;SDS011;41888;44.696;10.522;2023-06-14T04:02:34;7.32;;;1.80;;
56005;SDS011;41888;44.696;10.522;2023-06-14T04:05:01;3.88;;;1.92;;
56005;SDS011;41888;44.696;10.522;2023-06-14T04:07:28;3.95;;;2.20;;
56005;SDS011;41888;44.696;10.522;2023-06-14T04:09:55;6.30;;;1.77;;
56005;SDS011;41888;44.696;10.522;2023-06-14T04:12:21;3.28;;;1.98;;
56005;SDS011;41888;44.696;10.522;2023-06-14T04:14:47;5.53;;;2.72;;
56005;SDS011;41888;44.696;10.522;2023-06-14T04:17:13;5.63;;;2.40;;
56005;SDS011;41888;44.696;10.522;2023-06-14T04:19:39;3.10;;;1.73;;
56005;SDS011;41888;44.696;10.522;2023-06-14T04:22:06;7.80;;;2.35;;
56005;SDS011;41888;44.696;10.522;2023-06-14T04:24:32;3.90;;;2.72;;
56005;SDS011;41888;44.696;10.522;2023-06-14T04:26:59;2.35;;;1.50;;
56005;SDS011;41888;44.696;10.522;2023-06-14T04:29:29;3.83;;;2.22;;
56005;SDS011;41888;44.696;10.522;2023-06-14T04:31:57;4.38;;;2.30;;
56005;SDS011;41888;44.696;10.522;2023-06-14T04:34:26;3.70;;;2.10;;
56005;SDS011;41888;44.696;10.522;2023-06-14T04:36:57;5.68;;;2.00;;
56005;SDS011;41888;44.696;10.522;2023-06-14T04:39:25;4.05;;;1.95;;
56005;SDS011;41888;44.696;10.522;2023-06-14T04:41:52;6.72;;;2.05;;
56005;SDS011;41888;44.696;10.522;2023-06-14T04:44:22;6.13;;;2.08;;
56005;SDS011;41888;44.696;10.522;2023-06-14T04:46:55;3.00;;;1.80;;
56005;SDS011;41888;44.696;10.522;2023-06-14T04:49:23;6.15;;;2.20;;
56005;SDS011;41888;44.696;10.522;2023-06-14T04:51:51;4.88;;;1.98;;
56005;SDS011;41888;44.696;10.522;2023-06-14T04:54:24;3.28;;;1.60;;
56005;SDS011;41888;44.696;10.522;2023-06-14T04:56:50;3.38;;;1.60;;
56005;SDS011;41888;44.696;10.522;2023-06-14T04:59:18;4.38;;;1.80;;
56005;SDS011;41888;44.696;10.522;2023-06-14T05:01:44;10.32;;;2.50;;
56005;SDS011;41888;44.696;10.522;2023-06-14T05:04:13;3.25;;;2.22;;
56005;SDS011;41888;44.696;10.522;2023-06-14T05:06:43;4.13;;;1.95;;
56005;SDS011;41888;44.696;10.522;2023-06-14T05:09:13;4.95;;;2.47;;
56005;SDS011;41888;44.696;10.522;2023-06-14T05:11:41;3.85;;;2.13;;
56005;SDS011;41888;44.696;10.522;2023-06-14T05:14:09;6.18;;;2.22;;
56005;SDS011;41888;44.696;10.522;2023-06-14T05:16:38;5.25;;;1.98;;
56005;SDS011;41888;44.696;10.522;2023-06-14T05:19:05;3.10;;;2.80;;
56005;SDS011;41888;44.696;10.522;2023-06-14T05:21:31;2.50;;;1.90;;
56005;SDS011;41888;44.696;10.522;2023-06-14T05:23:59;3.83;;;1.88;;
56005;SDS011;41888;44.696;10.522;2023-06-14T05:26:26;4.10;;;2.13;;
56005;SDS011;41888;44.696;10.522;2023-06-14T05:28:56;3.90;;;1.80;;
56005;SDS011;41888;44.696;10.522;2023-06-14T05:31:23;3.67;;;1.73;;
56005;SDS011;41888;44.696;10.522;2023-06-14T05:33:51;2.42;;;1.67;;
56005;SDS011;41888;44.696;10.522;2023-06-14T05:36:18;4.88;;;1.80;;
56005;SDS011;41888;44.696;10.522;2023-06-14T05:38:44;3.03;;;1.60;;
56005;SDS011;41888;44.696;10.522;2023-06-14T05:41:11;5.53;;;1.90;;
56005;SDS011;41888;44.696;10.522;2023-06-14T05:43:37;4.38;;;2.13;;
56005;SDS011;41888;44.696;10.522;2023-06-14T05:46:04;2.90;;;1.70;;
56005;SDS011;41888;44.696;10.522;2023-06-14T05:48:30;4.18;;;2.03;;
56005;SDS011;41888;44.696;10.522;2023-06-14T05:50:57;6.18;;;2.60;;
56005;SDS011;41888;44.696;10.522;2023-06-14T05:53:23;4.00;;;2.03;;
56005;SDS011;41888;44.696;10.522;2023-06-14T05:55:50;4.20;;;2.33;;
56005;SDS011;41888;44.696;10.522;2023-06-14T05:58:20;2.88;;;1.70;;
56005;SDS011;41888;44.696;10.522;2023-06-14T06:00:47;7.57;;;1.95;;
56005;SDS011;41888;44.696;10.522;2023-06-14T06:03:13;8.75;;;3.28;;
56005;SDS011;41888;44.696;10.522;2023-06-14T06:05:39;5.15;;;2.08;;
56005;SDS011;41888;44.696;10.522;2023-06-14T06:08:05;5.22;;;2.03;;
56005;SDS011;41888;44.696;10.522;2023-06-14T06:10:31;5.65;;;2.10;;
56005;SDS011;41888;44.696;10.522;2023-06-14T06:12:58;6.20;;;2.20;;
56005;SDS011;41888;44.696;10.522;2023-06-14T06:15:24;6.60;;;2.05;;
56005;SDS011;41888;44.696;10.522;2023-06-14T06:17:50;9.80;;;3.05;;
56005;SDS011;41888;44.696;10.522;2023-06-14T06:20:17;3.30;;;2.00;;
56005;SDS011;41888;44.696;10.522;2023-06-14T06:22:43;8.07;;;2.30;;
56005;SDS011;41888;44.696;10.522;2023-06-14T06:25:09;4.40;;;2.38;;
56005;SDS011;41888;44.696;10.522;2023-06-14T06:27:35;6.03;;;2.10;;
56005;SDS011;41888;44.696;10.522;2023-06-14T06:30:03;7.30;;;3.03;;
56005;SDS011;41888;44.696;10.522;2023-06-14T06:32:30;8.80;;;2.95;;
56005;SDS011;41888;44.696;10.522;2023-06-14T06:34:56;4.28;;;2.08;;
56005;SDS011;41888;44.696;10.522;2023-06-14T06:37:24;5.30;;;2.55;;
56005;SDS011;41888;44.696;10.522;2023-06-14T06:39:50;5.50;;;2.70;;
56005;SDS011;41888;44.696;10.522;2023-06-14T06:42:17;4.30;;;2.25;;
56005;SDS011;41888;44.696;10.522;2023-06-14T06:44:43;6.15;;;2.63;;
56005;SDS011;41888;44.696;10.522;2023-06-14T06:47:09;5.35;;;2.88;;
56005;SDS011;41888;44.696;10.522;2023-06-14T06:49:36;4.25;;;2.72;;
56005;SDS011;41888;44.696;10.522;2023-06-14T06:52:05;4.90;;;3.08;;
56005;SDS011;41888;44.696;10.522;2023-06-14T06:54:32;7.63;;;3.58;;
56005;SDS011;41888;44.696;10.522;2023-06-14T06:56:59;4.60;;;2.97;;
56005;SDS011;41888;44.696;10.522;2023-06-14T06:59:29;5.25;;;3.13;;
56005;SDS011;41888;44.696;10.522;2023-06-14T07:01:55;7.88;;;3.55;;
56005;SDS011;41888;44.696;10.522;2023-06-14T07:04:21;7.88;;;3.42;;
56005;SDS011;41888;44.696;10.522;2023-06-14T07:06:47;4.35;;;2.85;;
56005;SDS011;41888;44.696;10.522;2023-06-14T07:09:13;4.90;;;3.38;;
56005;SDS011;41888;44.696;10.522;2023-06-14T07:11:41;6.53;;;3.45;;
56005;SDS011;41888;44.696;10.522;2023-06-14T07:14:08;7.30;;;4.10;;
56005;SDS011;41888;44.696;10.522;2023-06-14T07:16:34;6.85;;;3.40;;
56005;SDS011;41888;44.696;10.522;2023-06-14T07:19:03;6.28;;;4.05;;
56005;SDS011;41888;44.696;10.522;2023-06-14T07:21:30;6.10;;;3.88;;
56005;SDS011;41888;44.696;10.522;2023-06-14T07:23:56;10.48;;;4.80;;
56005;SDS011;41888;44.696;10.522;2023-06-14T07:26:22;9.25;;;4.78;;
56005;SDS011;41888;44.696;10.522;2023-06-14T07:28:49;7.57;;;4.90;;
56005;SDS011;41888;44.696;10.522;2023-06-14T07:31:15;12.32;;;5.45;;
56005;SDS011;41888;44.696;10.522;2023-06-14T07:33:43;9.63;;;4.70;;
56005;SDS011;41888;44.696;10.522;2023-06-14T07:36:09;7.15;;;4.68;;
56005;SDS011;41888;44.696;10.522;2023-06-14T07:38:36;17.45;;;5.43;;
56005;SDS011;41888;44.696;10.522;2023-06-14T07:41:02;10.40;;;5.60;;
56005;SDS011;41888;44.696;10.522;2023-06-14T07:43:29;7.30;;;5.18;;
56005;SDS011;41888;44.696;10.522;2023-06-14T07:45:55;7.30;;;4.07;;
56005;SDS011;41888;44.696;10.522;2023-06-14T07:48:22;7.63;;;4.60;;
56005;SDS011;41888;44.696;10.522;2023-06-14T07:50:48;7.90;;;4.50;;
56005;SDS011;41888;44.696;10.522;2023-06-14T07:53:14;9.52;;;5.72;;
56005;SDS011;41888;44.696;10.522;2023-06-14T07:55:40;7.57;;;5.20;;
56005;SDS011;41888;44.696;10.522;2023-06-14T07:58:08;12.07;;;6.43;;
56005;SDS011;41888;44.696;10.522;2023-06-14T08:00:35;11.05;;;6.53;;
56005;SDS011;41888;44.696;10.522;2023-06-14T08:03:01;8.73;;;5.47;;
56005;SDS011;41888;44.696;10.522;2023-06-14T08:05:29;9.85;;;5.82;;
56005;SDS011;41888;44.696;10.522;2023-06-14T08:07:55;12.02;;;5.82;;
56005;SDS011;41888;44.696;10.522;2023-06-14T08:10:21;12.05;;;6.00;;
56005;SDS011;41888;44.696;10.522;2023-06-14T08:12:48;8.23;;;5.75;;
56005;SDS011;41888;44.696;10.522;2023-06-14T08:15:17;13.45;;;5.63;;
56005;SDS011;41888;44.696;10.522;2023-06-14T08:17:43;8.57;;;5.35;;
56005;SDS011;41888;44.696;10.522;2023-06-14T08:20:10;8.25;;;5.28;;
56005;SDS011;41888;44.696;10.522;2023-06-14T08:22:37;12.30;;;5.22;;
56005;SDS011;41888;44.696;10.522;2023-06-14T08:25:04;9.82;;;5.82;;
56005;SDS011;41888;44.696;10.522;2023-06-14T08:27:32;9.13;;;5.82;;
56005;SDS011;41888;44.696;10.522;2023-06-14T08:29:58;8.35;;;5.28;;
56005;SDS011;41888;44.696;10.522;2023-06-14T08:32:25;10.18;;;5.47;;
56005;SDS011;41888;44.696;10.522;2023-06-14T08:34:51;8.40;;;4.57;;
56005;SDS011;41888;44.696;10.522;2023-06-14T08:37:17;9.07;;;5.63;;
56005;SDS011;41888;44.696;10.522;2023-06-14T08:39:43;13.85;;;5.63;;
56005;SDS011;41888;44.696;10.522;2023-06-14T08:42:10;8.60;;;5.63;;
56005;SDS011;41888;44.696;10.522;2023-06-14T08:44:37;11.13;;;5.28;;
56005;SDS011;41888;44.696;10.522;2023-06-14T08:47:03;8.60;;;5.53;;
56005;SDS011;41888;44.696;10.522;2023-06-14T08:49:33;9.57;;;6.32;;
56005;SDS011;41888;44.696;10.522;2023-06-14T08:52:01;11.23;;;6.82;;
56005;SDS011;41888;44.696;10.522;2023-06-14T08:54:29;9.88;;;5.78;;
56005;SDS011;41888;44.696;10.522;2023-06-14T08:56:57;27.48;;;8.68;;
56005;SDS011;41888;44.696;10.522;2023-06-14T08:59:27;12.35;;;5.90;;
56005;SDS011;41888;44.696;10.522;2023-06-14T09:01:53;32.85;;;8.55;;
56005;SDS011;41888;44.696;10.522;2023-06-14T09:04:20;14.57;;;7.25;;
56005;SDS011;41888;44.696;10.522;2023-06-14T09:06:47;16.38;;;6.45;;
56005;SDS011;41888;44.696;10.522;2023-06-14T09:09:19;6.57;;;4.90;;
56005;SDS011;41888;44.696;10.522;2023-06-14T09:11:47;8.65;;;5.50;;
56005;SDS011;41888;44.696;10.522;2023-06-14T09:14:23;11.73;;;5.55;;
56005;SDS011;41888;44.696;10.522;2023-06-14T09:16:53;10.38;;;5.63;;
56005;SDS011;41888;44.696;10.522;2023-06-14T09:19:23;9.77;;;5.93;;
56005;SDS011;41888;44.696;10.522;2023-06-14T09:21:49;12.00;;;6.18;;
56005;SDS011;41888;44.696;10.522;2023-06-14T09:24:17;12.98;;;6.10;;
56005;SDS011;41888;44.696;10.522;2023-06-14T09:26:47;10.13;;;6.28;;
56005;SDS011;41888;44.696;10.522;2023-06-14T09:29:16;12.98;;;7.30;;
56005;SDS011;41888;44.696;10.522;2023-06-14T09:31:46;10.05;;;5.88;;
56005;SDS011;41888;44.696;10.522;2023-06-14T09:34:12;10.02;;;6.95;;
56005;SDS011;41888;44.696;10.522;2023-06-14T09:36:41;10.25;;;6.10;;
56005;SDS011;41888;44.696;10.522;2023-06-14T09:39:07;8.65;;;5.60;;
56005;SDS011;41888;44.696;10.522;2023-06-14T09:41:34;10.68;;;5.63;;
56005;SDS011;41888;44.696;10.522;2023-06-14T09:44:05;9.68;;;5.82;;
56005;SDS011;41888;44.696;10.522;2023-06-14T09:46:33;11.43;;;6.68;;
56005;SDS011;41888;44.696;10.522;2023-06-14T09:49:01;11.13;;;6.32;;
56005;SDS011;41888;44.696;10.522;2023-06-14T09:51:28;11.40;;;6.70;;
56005;SDS011;41888;44.696;10.522;2023-06-14T09:54:01;13.45;;;6.63;;
56005;SDS011;41888;44.696;10.522;2023-06-14T09:56:37;10.00;;;5.47;;
56005;SDS011;41888;44.696;10.522;2023-06-14T09:59:06;10.60;;;4.75;;
56005;SDS011;41888;44.696;10.522;2023-06-14T10:01:35;7.22;;;4.78;;
56005;SDS011;41888;44.696;10.522;2023-06-14T10:04:06;8.40;;;5.45;;
56005;SDS011;41888;44.696;10.522;2023-06-14T10:06:39;8.00;;;5.38;;
56005;SDS011;41888;44.696;10.522;2023-06-14T10:09:08;9.20;;;6.43;;
56005;SDS011;41888;44.696;10.522;2023-06-14T10:11:35;9.65;;;6.97;;
56005;SDS011;41888;44.696;10.522;2023-06-14T10:14:08;11.48;;;6.53;;
56005;SDS011;41888;44.696;10.522;2023-06-14T10:16:54;11.77;;;7.72;;
56005;SDS011;41888;44.696;10.522;2023-06-14T10:22:18;10.98;;;7.07;;
56005;SDS011;41888;44.696;10.522;2023-06-14T10:24:56;11.57;;;7.25;;
56005;SDS011;41888;44.696;10.522;2023-06-14T10:27:23;9.18;;;5.72;;
56005;SDS011;41888;44.696;10.522;2023-06-14T10:32:20;15.57;;;7.28;;
56005;SDS011;41888;44.696;10.522;2023-06-14T10:34:59;6.68;;;4.57;;
56005;SDS011;41888;44.696;10.522;2023-06-14T10:37:26;4.75;;;3.67;;
56005;SDS011;41888;44.696;10.522;2023-06-14T10:39:53;7.07;;;4.95;;
56005;SDS011;41888;44.696;10.522;2023-06-14T10:42:19;9.57;;;5.85;;
56005;SDS011;41888;44.696;10.522;2023-06-14T10:44:57;10.32;;;7.05;;
56005;SDS011;41888;44.696;10.522;2023-06-14T10:47:35;8.25;;;6.25;;
56005;SDS011;41888;44.696;10.522;2023-06-14T10:50:10;11.25;;;6.75;;
56005;SDS011;41888;44.696;10.522;2023-06-14T10:52:43;8.65;;;5.75;;
56005;SDS011;41888;44.696;10.522;2023-06-14T10:57:41;7.35;;;4.72;;
56005;SDS011;41888;44.696;10.522;2023-06-14T11:00:09;7.28;;;4.70;;
56005;SDS011;41888;44.696;10.522;2023-06-14T11:02:51;6.95;;;5.18;;
56005;SDS011;41888;44.696;10.522;2023-06-14T11:05:53;8.13;;;5.05;;
56005;SDS011;41888;44.696;10.522;2023-06-14T11:08:27;6.57;;;4.65;;
56005;SDS011;41888;44.696;10.522;2023-06-14T11:11:05;9.48;;;5.80;;
56005;SDS011;41888;44.696;10.522;2023-06-14T11:13:32;7.85;;;5.97;;
56005;SDS011;41888;44.696;10.522;2023-06-14T11:15:59;8.95;;;6.10;;
56005;SDS011;41888;44.696;10.522;2023-06-14T11:18:25;18.58;;;6.97;;
56005;SDS011;41888;44.696;10.522;2023-06-14T11:20:53;7.32;;;4.80;;
56005;SDS011;41888;44.696;10.522;2023-06-14T11:23:20;5.03;;;3.63;;
56005;SDS011;41888;44.696;10.522;2023-06-14T11:25:51;6.40;;;3.65;;
56005;SDS011;41888;44.696;10.522;2023-06-14T11:28:17;8.55;;;3.60;;
56005;SDS011;41888;44.696;10.522;2023-06-14T11:30:48;5.50;;;3.38;;
56005;SDS011;41888;44.696;10.522;2023-06-14T11:33:24;5.07;;;3.35;;
56005;SDS011;41888;44.696;10.522;2023-06-14T11:35:51;4.10;;;2.83;;
56005;SDS011;41888;44.696;10.522;2023-06-14T11:38:17;6.07;;;2.95;;
56005;SDS011;41888;44.696;10.522;2023-06-14T11:40:43;4.07;;;3.13;;
56005;SDS011;41888;44.696;10.522;2023-06-14T11:43:10;9.43;;;3.72;;
56005;SDS011;41888;44.696;10.522;2023-06-14T11:45:37;4.95;;;3.50;;
56005;SDS011;41888;44.696;10.522;2023-06-14T11:48:04;4.97;;;3.13;;
56005;SDS011;41888;44.696;10.522;2023-06-14T11:50:31;4.00;;;2.75;;
56005;SDS011;41888;44.696;10.522;2023-06-14T11:53:01;5.65;;;2.97;;
56005;SDS011;41888;44.696;10.522;2023-06-14T11:55:35;5.78;;;4.35;;
56005;SDS011;41888;44.696;10.522;2023-06-14T11:58:06;7.43;;;5.43;;
56005;SDS011;41888;44.696;10.522;2023-06-14T12:00:35;9.88;;;4.80;;
56005;SDS011;41888;44.696;10.522;2023-06-14T12:03:02;11.80;;;5.00;;
56005;SDS011;41888;44.696;10.522;2023-06-14T12:05:28;42.47;;;11.52;;
56005;SDS011;41888;44.696;10.522;2023-06-14T12:07:58;5.68;;;4.90;;
56005;SDS011;41888;44.696;10.522;2023-06-14T12:10:26;6.47;;;5.40;;
56005;SDS011;41888;44.696;10.522;2023-06-14T12:12:56;6.47;;;5.18;;
56005;SDS011;41888;44.696;10.522;2023-06-14T12:15:27;7.63;;;5.43;;
56005;SDS011;41888;44.696;10.522;2023-06-14T12:17:57;6.72;;;5.50;;
56005;SDS011;41888;44.696;10.522;2023-06-14T12:20:28;6.95;;;5.18;;
56005;SDS011;41888;44.696;10.522;2023-06-14T12:22:56;6.88;;;5.35;;
56005;SDS011;41888;44.696;10.522;2023-06-14T12:25:34;7.18;;;5.57;;
56005;SDS011;41888;44.696;10.522;2023-06-14T12:28:05;6.88;;;4.90;;
56005;SDS011;41888;44.696;10.522;2023-06-14T12:30:37;6.05;;;4.63;;
56005;SDS011;41888;44.696;10.522;2023-06-14T12:33:04;6.18;;;4.95;;
56005;SDS011;41888;44.696;10.522;2023-06-14T12:35:31;5.70;;;4.10;;
56005;SDS011;41888;44.696;10.522;2023-06-14T12:37:57;6.65;;;4.97;;
56005;SDS011;41888;44.696;10.522;2023-06-14T12:40:23;6.22;;;4.72;;
56005;SDS011;41888;44.696;10.522;2023-06-14T12:42:49;5.03;;;4.05;;
56005;SDS011;41888;44.696;10.522;2023-06-14T12:45:16;6.72;;;4.45;;
56005;SDS011;41888;44.696;10.522;2023-06-14T12:47:42;5.95;;;3.78;;
56005;SDS011;41888;44.696;10.522;2023-06-14T12:50:08;4.10;;;3.70;;
56005;SDS011;41888;44.696;10.522;2023-06-14T12:52:34;5.95;;;4.00;;
56005;SDS011;41888;44.696;10.522;2023-06-14T12:55:01;8.30;;;4.82;;
56005;SDS011;41888;44.696;10.522;2023-06-14T12:57:28;9.57;;;5.18;;
56005;SDS011;41888;44.696;10.522;2023-06-14T12:59:55;6.57;;;3.95;;
56005;SDS011;41888;44.696;10.522;2023-06-14T13:02:21;5.88;;;3.72;;
56005;SDS011;41888;44.696;10.522;2023-06-14T13:04:48;5.80;;;3.70;;
56005;SDS011;41888;44.696;10.522;2023-06-14T13:07:15;4.65;;;3.40;;
56005;SDS011;41888;44.696;10.522;2023-06-14T13:09:41;5.78;;;4.53;;
56005;SDS011;41888;44.696;10.522;2023-06-14T13:12:09;4.63;;;3.85;;
56005;SDS011;41888;44.696;10.522;2023-06-14T13:14:37;8.77;;;4.03;;
56005;SDS011;41888;44.696;10.522;2023-06-14T13:17:04;6.88;;;3.85;;
56005;SDS011;41888;44.696;10.522;2023-06-14T13:19:30;5.57;;;3.65;;
56005;SDS011;41888;44.696;10.522;2023-06-14T13:21:56;5.60;;;3.70;;
56005;SDS011;41888;44.696;10.522;2023-06-14T13:24:23;5.57;;;3.58;;
56005;SDS011;41888;44.696;10.522;2023-06-14T13:26:49;6.05;;;3.70;;
56005;SDS011;41888;44.696;10.522;2023-06-14T13:29:15;5.57;;;4.43;;
56005;SDS011;41888;44.696;10.522;2023-06-14T13:31:41;6.25;;;4.00;;
56005;SDS011;41888;44.696;10.522;2023-06-14T13:34:07;4.97;;;3.90;;
56005;SDS011;41888;44.696;10.522;2023-06-14T13:36:34;10.68;;;4.60;;
56005;SDS011;41888;44.696;10.522;2023-06-14T13:39:00;5.78;;;3.45;;
56005;SDS011;41888;44.696;10.522;2023-06-14T13:41:27;4.75;;;3.38;;
56005;SDS011;41888;44.696;10.522;2023-06-14T13:43:59;4.95;;;3.65;;
56005;SDS011;41888;44.696;10.522;2023-06-14T13:46:25;6.38;;;3.78;;
56005;SDS011;41888;44.696;10.522;2023-06-14T13:48:51;5.35;;;3.20;;
56005;SDS011;41888;44.696;10.522;2023-06-14T13:51:18;7.43;;;4.07;;
56005;SDS011;41888;44.696;10.522;2023-06-14T13:53:46;5.65;;;3.45;;
56005;SDS011;41888;44.696;10.522;2023-06-14T13:56:15;19.92;;;8.25;;
56005;SDS011;41888;44.696;10.522;2023-06-14T13:58:42;10.57;;;4.32;;
56005;SDS011;41888;44.696;10.522;2023-06-14T14:01:08;7.35;;;3.92;;
56005;SDS011;41888;44.696;10.522;2023-06-14T14:03:36;5.57;;;3.90;;
56005;SDS011;41888;44.696;10.522;2023-06-14T14:06:03;6.32;;;4.07;;
56005;SDS011;41888;44.696;10.522;2023-06-14T14:08:31;5.05;;;3.78;;
56005;SDS011;41888;44.696;10.522;2023-06-14T14:10:57;7.57;;;4.32;;
56005;SDS011;41888;44.696;10.522;2023-06-14T14:13:23;6.57;;;4.43;;
56005;SDS011;41888;44.696;10.522;2023-06-14T14:15:50;7.40;;;3.83;;
56005;SDS011;41888;44.696;10.522;2023-06-14T14:18:16;7.85;;;3.88;;
56005;SDS011;41888;44.696;10.522;2023-06-14T14:20:43;5.47;;;3.50;;
56005;SDS011;41888;44.696;10.522;2023-06-14T14:23:09;6.45;;;3.80;;
56005;SDS011;41888;44.696;10.522;2023-06-14T14:25:35;5.70;;;4.15;;
56005;SDS011;41888;44.696;10.522;2023-06-14T14:28:01;6.22;;;3.95;;
56005;SDS011;41888;44.696;10.522;2023-06-14T14:30:27;5.60;;;3.67;;
56005;SDS011;41888;44.696;10.522;2023-06-14T14:32:54;4.80;;;3.35;;
56005;SDS011;41888;44.696;10.522;2023-06-14T14:35:20;7.38;;;4.63;;
56005;SDS011;41888;44.696;10.522;2023-06-14T14:37:49;4.75;;;3.58;;
56005;SDS011;41888;44.696;10.522;2023-06-14T14:40:15;3.42;;;2.83;;
56005;SDS011;41888;44.696;10.522;2023-06-14T14:42:41;7.53;;;3.38;;
56005;SDS011;41888;44.696;10.522;2023-06-14T14:45:08;5.43;;;3.28;;
56005;SDS011;41888;44.696;10.522;2023-06-14T14:47:34;5.90;;;3.13;;